Time;durP1;ratioP1;P1;durP2;ratioP2;P2;SDS_P1;SDS_P2;PMS_P1;PMS_P2;Temp;Humidity;BMP_temperature;BMP_pressure;BME280_temperature;BME280_humidity;BME280_pressure;Samples;Min_cycle;Max_cycle;Signal;HPM_P1;HPM_P2
2023/10/04 00:00:17;;;;;;;3.77;2.23;;;13.20;99.90;;;;;;4993938;28;20476;-63
2023/10/04 00:02:49;;;;;;;4.20;2.33;;;13.10;99.90;;;;;;4993694;28;20485;-66
2023/10/04 00:05:17;;;;;;;4.93;2.47;;;13.10;99.90;;;;;;4993744;28;20498;-64
2023/10/04 00:07:46;;;;;;;5.00;2.27;;;13.20;99.90;;;;;;4993563;28;20484;-64
2023/10/04 00:10:16;;;;;;;5.97;2.33;;;13.10;99.90;;;;;;4994066;28;20473;-64
2023/10/04 00:12:45;;;;;;;6.10;2.47;;;13.10;99.90;;;;;;4995389;28;20586;-64
2023/10/04 00:15:14;;;;;;;5.67;2.57;;;13.10;99.90;;;;;;4994019;28;20485;-64
2023/10/04 00:17:44;;;;;;;7.20;2.10;;;13.10;99.90;;;;;;4991387;28;20477;-64
2023/10/04 00:20:16;;;;;;;4.10;1.87;;;13.10;99.90;;;;;;4996008;28;20486;-65
2023/10/04 00:22:46;;;;;;;5.70;2.77;;;13.10;99.90;;;;;;4994547;28;20492;-64
2023/10/04 00:25:20;;;;;;;5.13;3.00;;;13.20;99.90;;;;;;4995405;28;20493;-64
2023/10/04 00:27:52;;;;;;;5.80;1.80;;;13.10;99.90;;;;;;4995415;28;20538;-64
2023/10/04 00:30:20;;;;;;;3.23;2.10;;;13.10;99.90;;;;;;4993993;28;20550;-64
2023/10/04 00:32:48;;;;;;;7.40;2.27;;;13.10;99.90;;;;;;4995973;28;20500;-64
2023/10/04 00:35:19;;;;;;;8.77;2.23;;;13.20;99.90;;;;;;4996091;28;20492;-64
2023/10/04 00:37:51;;;;;;;5.10;2.20;;;13.20;99.90;;;;;;4993877;28;20472;-63
2023/10/04 00:40:26;;;;;;;5.53;1.90;;;13.20;99.90;;;;;;4990839;28;20477;-64
2023/10/04 00:42:56;;;;;;;5.83;2.17;;;13.20;99.90;;;;;;4993906;28;20582;-64
2023/10/04 00:45:25;;;;;;;5.80;2.23;;;13.20;99.90;;;;;;4994546;28;20496;-64
2023/10/04 00:47:56;;;;;;;5.93;1.90;;;13.20;99.90;;;;;;4991975;28;20567;-64
2023/10/04 00:50:31;;;;;;;5.87;2.10;;;13.20;99.90;;;;;;4997602;28;20800;-64
2023/10/04 00:53:03;;;;;;;3.83;1.70;;;13.10;99.90;;;;;;4995974;28;20503;-64
2023/10/04 00:55:34;;;;;;;4.10;2.10;;;13.10;99.90;;;;;;4992101;28;20576;-64
2023/10/04 00:58:05;;;;;;;2.90;1.83;;;13.10;99.90;;;;;;4988822;28;20503;-64
2023/10/04 01:00:34;;;;;;;4.50;1.63;;;13.10;99.90;;;;;;4993517;28;20472;-64
2023/10/04 01:03:03;;;;;;;4.83;2.17;;;13.10;99.90;;;;;;4995006;28;21001;-64
2023/10/04 01:05:32;;;;;;;3.30;1.80;;;13.10;99.90;;;;;;4995180;28;20492;-64
2023/10/04 01:08:01;;;;;;;7.17;2.00;;;13.20;99.90;;;;;;4992768;28;20882;-64
2023/10/04 01:10:33;;;;;;;4.70;2.50;;;13.20;99.90;;;;;;4997484;28;20522;-64
2023/10/04 01:13:05;;;;;;;3.53;1.97;;;13.20;99.90;;;;;;4994673;28;20506;-64
2023/10/04 01:15:36;;;;;;;2.93;2.07;;;13.20;99.90;;;;;;4991539;28;20925;-64
2023/10/04 01:18:06;;;;;;;5.70;2.70;;;13.20;99.90;;;;;;4992634;28;20562;-65
2023/10/04 01:20:37;;;;;;;4.87;2.00;;;13.20;99.90;;;;;;4990134;28;20484;-65
2023/10/04 01:23:10;;;;;;;3.10;1.80;;;13.20;99.90;;;;;;4994213;28;20883;-65
2023/10/04 01:25:41;;;;;;;4.23;1.80;;;13.20;99.90;;;;;;4991420;28;20502;-65
2023/10/04 01:28:12;;;;;;;3.70;2.10;;;13.10;99.90;;;;;;4990895;28;20952;-63
2023/10/04 01:30:41;;;;;;;3.93;1.80;;;13.10;99.90;;;;;;4991840;28;20890;-63
2023/10/04 01:33:11;;;;;;;2.90;1.80;;;13.10;99.90;;;;;;4994587;28;20582;-63
2023/10/04 01:35:39;;;;;;;3.83;2.00;;;13.10;99.90;;;;;;4992250;28;20489;-63
2023/10/04 01:38:09;;;;;;;3.43;2.17;;;13.00;99.90;;;;;;4986039;28;20482;-63
2023/10/04 01:40:39;;;;;;;3.20;2.13;;;13.10;99.90;;;;;;4992936;28;20509;-63
2023/10/04 01:43:14;;;;;;;4.00;2.07;;;13.00;99.90;;;;;;4993980;28;20494;-63
2023/10/04 01:45:45;;;;;;;3.50;2.17;;;13.00;99.90;;;;;;4993807;28;20605;-63
2023/10/04 01:48:15;;;;;;;4.00;2.60;;;13.00;99.90;;;;;;4994173;28;20501;-63
2023/10/04 01:50:43;;;;;;;3.43;2.17;;;13.00;99.90;;;;;;4995987;28;20472;-65
2023/10/04 01:53:14;;;;;;;5.80;2.10;;;13.10;99.90;;;;;;4993661;28;21197;-65
2023/10/04 01:55:42;;;;;;;3.57;2.23;;;13.10;99.90;;;;;;4994721;28;20564;-65
2023/10/04 01:58:10;;;;;;;7.33;2.60;;;13.10;99.90;;;;;;4994749;28;22025;-65
2023/10/04 02:00:38;;;;;;;8.07;2.93;;;13.10;99.90;;;;;;4997724;28;21031;-65
2023/10/04 02:03:09;;;;;;;7.03;2.13;;;13.10;99.90;;;;;;4996306;28;20880;-65
2023/10/04 02:05:40;;;;;;;2.67;1.90;;;13.10;99.90;;;;;;4995510;28;20488;-65
2023/10/04 02:08:09;;;;;;;6.03;2.70;;;13.10;99.90;;;;;;4996426;28;20469;-65
2023/10/04 02:10:38;;;;;;;6.67;2.27;;;13.10;99.90;;;;;;4997727;28;20548;-64
2023/10/04 02:13:08;;;;;;;3.73;2.30;;;13.10;99.90;;;;;;4997309;28;20547;-65
2023/10/04 02:15:37;;;;;;;5.00;2.43;;;13.10;99.90;;;;;;4997646;28;20498;-65
2023/10/04 02:18:07;;;;;;;2.90;2.03;;;13.10;99.90;;;;;;4995953;28;20464;-65
2023/10/04 02:20:36;;;;;;;3.07;2.10;;;13.10;99.90;;;;;;4989901;28;20928;-65
2023/10/04 02:23:07;;;;;;;3.10;2.00;;;13.10;99.90;;;;;;4997903;28;20484;-65
2023/10/04 02:25:35;;;;;;;5.87;2.03;;;13.10;99.90;;;;;;4995292;28;20500;-65
2023/10/04 02:28:10;;;;;;;5.30;2.40;;;13.10;99.90;;;;;;4996065;28;20487;-65
2023/10/04 02:30:39;;;;;;;6.30;2.73;;;13.00;99.90;;;;;;4996859;28;20472;-65
2023/10/04 02:33:13;;;;;;;6.87;2.60;;;13.00;99.90;;;;;;4995027;28;21022;-65
2023/10/04 02:35:44;;;;;;;5.00;1.97;;;13.00;99.90;;;;;;4994896;28;20550;-65
2023/10/04 02:38:23;;;;;;;4.83;1.90;;;13.00;99.90;;;;;;4995927;28;20615;-65
2023/10/04 02:40:51;;;;;;;6.30;2.27;;;12.90;99.90;;;;;;4996625;28;20474;-65
2023/10/04 02:43:21;;;;;;;5.73;2.10;;;12.90;99.90;;;;;;4994248;28;20620;-64
2023/10/04 02:45:50;;;;;;;7.03;2.30;;;12.90;99.90;;;;;;4991727;28;20604;-65
2023/10/04 02:48:20;;;;;;;6.70;2.67;;;12.90;99.90;;;;;;4992890;28;20506;-64
2023/10/04 02:50:49;;;;;;;5.23;2.33;;;13.00;99.90;;;;;;5000729;28;20575;-64
2023/10/04 02:53:19;;;;;;;6.27;2.60;;;13.00;99.90;;;;;;4992741;28;20508;-64
2023/10/04 02:55:49;;;;;;;5.30;2.87;;;13.00;99.90;;;;;;4992968;28;20504;-64
2023/10/04 02:58:19;;;;;;;6.43;2.47;;;13.10;99.90;;;;;;4997436;28;20464;-64
2023/10/04 03:00:50;;;;;;;6.17;2.40;;;13.10;99.90;;;;;;4994416;28;20484;-65
2023/10/04 03:03:22;;;;;;;5.13;2.40;;;13.10;99.90;;;;;;4996224;28;20883;-64
2023/10/04 03:05:51;;;;;;;4.63;2.00;;;13.10;99.90;;;;;;4996251;28;20484;-64
2023/10/04 03:08:20;;;;;;;5.63;2.47;;;13.10;99.90;;;;;;4992406;28;21105;-65
2023/10/04 03:10:50;;;;;;;6.93;2.80;;;13.10;99.90;;;;;;4997320;28;20535;-65
2023/10/04 03:13:25;;;;;;;6.37;2.30;;;13.00;99.90;;;;;;4996622;28;20624;-65
2023/10/04 03:15:55;;;;;;;6.40;2.47;;;13.00;99.90;;;;;;4998294;28;20570;-64
2023/10/04 03:18:25;;;;;;;8.10;2.63;;;13.10;99.90;;;;;;4998093;28;21034;-64
2023/10/04 03:21:01;;;;;;;4.83;2.23;;;13.10;99.90;;;;;;4990544;28;20558;-64
2023/10/04 03:23:33;;;;;;;6.17;2.33;;;13.00;99.90;;;;;;4996629;28;20497;-64
2023/10/04 03:26:03;;;;;;;5.97;2.40;;;13.00;99.90;;;;;;4995595;28;20496;-64
2023/10/04 03:28:37;;;;;;;6.00;2.80;;;13.00;99.90;;;;;;5000103;28;20599;-64
2023/10/04 03:31:11;;;;;;;5.43;2.33;;;13.00;99.90;;;;;;5000428;28;20492;-64
2023/10/04 03:33:39;;;;;;;4.73;2.43;;;12.90;99.90;;;;;;4997111;28;20497;-64
2023/10/04 03:36:08;;;;;;;3.87;1.93;;;12.90;99.90;;;;;;4996124;28;20489;-64
2023/10/04 03:38:36;;;;;;;6.03;2.30;;;12.90;99.90;;;;;;4994216;28;20469;-64
2023/10/04 03:41:05;;;;;;;4.63;2.97;;;12.90;99.90;;;;;;4994114;28;20849;-64
2023/10/04 03:43:35;;;;;;;6.83;2.30;;;12.90;99.90;;;;;;4996654;28;21072;-64
2023/10/04 03:46:16;;;;;;;7.87;2.33;;;12.80;99.90;;;;;;4996606;28;20488;-64
2023/10/04 03:48:46;;;;;;;7.70;2.33;;;12.80;99.90;;;;;;4991865;28;20479;-64
2023/10/04 03:51:19;;;;;;;5.10;2.30;;;12.80;99.90;;;;;;4997159;28;21009;-64
2023/10/04 03:53:49;;;;;;;6.03;2.60;;;12.80;99.90;;;;;;4997011;28;21038;-64
2023/10/04 03:56:18;;;;;;;4.80;2.00;;;12.90;99.90;;;;;;4996312;28;20489;-64
2023/10/04 03:58:48;;;;;;;5.90;1.90;;;12.90;99.90;;;;;;4996004;28;20473;-64
2023/10/04 04:01:17;;;;;;;4.23;2.20;;;12.90;99.90;;;;;;4997558;28;20970;-64
2023/10/04 04:03:48;;;;;;;3.93;2.27;;;12.90;99.90;;;;;;4996657;28;20492;-64
2023/10/04 04:06:17;;;;;;;6.83;2.47;;;12.90;99.90;;;;;;4997515;28;20489;-64
2023/10/04 04:08:46;;;;;;;3.47;2.13;;;12.90;99.90;;;;;;4994403;28;20488;-64
2023/10/04 04:11:14;;;;;;;4.17;2.27;;;12.90;99.90;;;;;;4992068;28;20542;-64
2023/10/04 04:13:45;;;;;;;4.97;2.40;;;12.80;99.90;;;;;;4992321;28;20945;-64
2023/10/04 04:16:17;;;;;;;7.57;3.10;;;12.80;99.90;;;;;;4994319;28;20515;-64
2023/10/04 04:18:51;;;;;;;4.83;2.10;;;12.80;99.90;;;;;;4997075;28;20479;-64
2023/10/04 04:21:20;;;;;;;5.03;2.10;;;12.80;99.90;;;;;;4987499;28;20683;-64
2023/10/04 04:23:48;;;;;;;4.90;2.13;;;12.80;99.90;;;;;;4993768;28;20497;-64
2023/10/04 04:26:16;;;;;;;5.63;2.63;;;12.80;99.90;;;;;;4988821;28;20879;-64
2023/10/04 04:28:44;;;;;;;4.57;2.13;;;12.80;99.90;;;;;;4992276;28;20476;-64
2023/10/04 04:31:14;;;;;;;4.73;2.30;;;12.80;99.90;;;;;;4990893;28;20479;-64
2023/10/04 04:33:43;;;;;;;6.60;2.33;;;12.80;99.90;;;;;;4995364;28;20496;-64
2023/10/04 04:36:18;;;;;;;5.43;2.57;;;12.80;99.90;;;;;;4988527;28;21292;-64
2023/10/04 04:38:47;;;;;;;6.10;2.80;;;12.80;99.90;;;;;;4992627;28;20477;-64
2023/10/04 04:41:21;;;;;;;3.93;3.10;;;12.80;99.90;;;;;;4993753;28;20977;-64
2023/10/04 04:43:49;;;;;;;10.10;2.93;;;12.80;99.90;;;;;;4992809;28;20494;-64
2023/10/04 04:46:18;;;;;;;4.10;2.20;;;12.80;99.90;;;;;;4987105;28;20480;-64
2023/10/04 04:48:48;;;;;;;9.47;2.50;;;12.70;99.90;;;;;;4991526;28;20468;-64
2023/10/04 04:51:18;;;;;;;4.20;2.10;;;12.80;99.90;;;;;;4993677;28;20855;-64
2023/10/04 04:53:47;;;;;;;3.00;2.00;;;12.80;99.90;;;;;;4989227;28;20504;-64
2023/10/04 04:56:15;;;;;;;6.10;2.77;;;12.80;99.90;;;;;;4993329;28;21037;-64
2023/10/04 04:58:47;;;;;;;5.30;2.10;;;12.80;99.90;;;;;;4998535;28;20476;-64
2023/10/04 05:01:15;;;;;;;8.50;2.63;;;12.80;99.90;;;;;;4995635;28;20508;-64
2023/10/04 05:03:46;;;;;;;9.90;4.50;;;12.70;99.90;;;;;;4993883;28;20554;-64
2023/10/04 05:06:21;;;;;;;4.47;2.80;;;12.70;99.90;;;;;;4987144;28;21199;-64
2023/10/04 05:08:50;;;;;;;5.73;1.97;;;12.70;99.90;;;;;;4984520;28;20481;-64
2023/10/04 05:11:18;;;;;;;6.23;2.30;;;12.70;99.90;;;;;;4985545;28;20473;-63
2023/10/04 05:13:47;;;;;;;5.80;2.20;;;12.70;99.90;;;;;;4993295;28;21058;-64
2023/10/04 05:16:15;;;;;;;8.67;2.77;;;12.80;99.90;;;;;;4987431;28;20499;-64
2023/10/04 05:18:43;;;;;;;4.20;2.10;;;12.80;99.90;;;;;;4973471;28;20476;-64
2023/10/04 05:21:12;;;;;;;6.70;2.40;;;12.80;99.90;;;;;;4970356;28;20469;-64
2023/10/04 05:23:42;;;;;;;7.57;2.00;;;12.80;99.90;;;;;;4990369;28;20500;-64
2023/10/04 05:26:11;;;;;;;3.60;2.23;;;12.80;99.90;;;;;;4988460;28;21054;-64
2023/10/04 05:28:39;;;;;;;6.30;2.63;;;12.80;99.90;;;;;;4983950;28;20476;-64
2023/10/04 05:31:08;;;;;;;4.07;2.60;;;12.80;99.90;;;;;;4985404;28;21057;-64
2023/10/04 05:33:37;;;;;;;6.60;2.30;;;12.90;99.90;;;;;;4992355;28;20587;-64
2023/10/04 05:36:07;;;;;;;7.13;2.30;;;12.90;99.90;;;;;;4987376;28;20575;-65
2023/10/04 05:38:35;;;;;;;5.93;2.30;;;12.90;99.90;;;;;;4993469;28;20476;-64
2023/10/04 05:41:06;;;;;;;4.40;2.20;;;12.90;99.90;;;;;;4994146;28;20476;-64
2023/10/04 05:43:35;;;;;;;4.90;2.70;;;12.90;99.90;;;;;;4993198;28;20558;-64
2023/10/04 05:46:06;;;;;;;7.33;2.87;;;12.90;99.90;;;;;;4987150;28;21104;-64
2023/10/04 05:48:35;;;;;;;6.73;2.70;;;12.90;99.90;;;;;;4991245;28;20828;-64
2023/10/04 05:51:06;;;;;;;5.10;2.23;;;12.90;99.90;;;;;;4985815;28;20472;-64
2023/10/04 05:53:37;;;;;;;5.47;2.67;;;12.90;99.90;;;;;;4991745;28;20543;-64
2023/10/04 05:56:09;;;;;;;6.00;2.73;;;12.90;99.90;;;;;;4990677;28;21128;-64
2023/10/04 05:58:37;;;;;;;6.00;2.50;;;12.90;99.90;;;;;;4988406;28;20480;-64
2023/10/04 06:01:06;;;;;;;6.37;2.50;;;12.90;99.90;;;;;;4991583;28;20559;-65
2023/10/04 06:03:35;;;;;;;7.87;4.63;;;13.00;99.90;;;;;;4991552;28;20798;-64
2023/10/04 06:06:04;;;;;;;3.33;1.90;;;13.00;99.90;;;;;;4987860;28;20491;-64
2023/10/04 06:08:33;;;;;;;5.57;2.30;;;13.00;99.90;;;;;;4991117;28;22408;-64
2023/10/04 06:11:02;;;;;;;5.73;2.60;;;13.00;99.90;;;;;;4986336;28;20482;-64
2023/10/04 06:13:31;;;;;;;3.60;2.10;;;13.00;99.90;;;;;;4988302;28;20558;-64
2023/10/04 06:15:59;;;;;;;4.00;2.10;;;13.00;99.90;;;;;;4988389;28;20913;-64
2023/10/04 06:18:29;;;;;;;7.10;2.50;;;13.00;99.90;;;;;;4990597;28;20532;-64
2023/10/04 06:20:59;;;;;;;5.23;2.53;;;13.00;99.90;;;;;;4987559;28;20507;-64
2023/10/04 06:23:30;;;;;;;6.83;2.50;;;13.00;99.90;;;;;;4986692;28;20999;-64
2023/10/04 06:25:58;;;;;;;5.33;2.40;;;13.00;99.90;;;;;;4981394;28;20485;-64
2023/10/04 06:28:26;;;;;;;5.07;2.27;;;13.00;99.90;;;;;;4988083;28;20991;-64
2023/10/04 06:30:56;;;;;;;5.27;2.60;;;13.00;99.90;;;;;;4989114;28;20460;-64
2023/10/04 06:33:24;;;;;;;4.70;2.50;;;13.00;99.90;;;;;;4993393;28;20492;-64
2023/10/04 06:35:53;;;;;;;4.27;2.63;;;13.10;99.90;;;;;;4991953;28;20578;-64
2023/10/04 06:38:21;;;;;;;7.00;3.13;;;13.00;99.90;;;;;;4992219;28;20480;-64
2023/10/04 06:40:49;;;;;;;6.20;2.03;;;13.10;99.90;;;;;;4994102;28;20465;-64
2023/10/04 06:43:17;;;;;;;7.70;2.80;;;13.10;99.90;;;;;;4993682;28;20480;-64
2023/10/04 06:45:45;;;;;;;5.63;2.27;;;13.10;99.90;;;;;;4993220;28;20962;-64
2023/10/04 06:48:14;;;;;;;6.30;2.87;;;13.20;99.90;;;;;;4990580;28;20491;-64
2023/10/04 06:50:44;;;;;;;5.30;2.43;;;13.20;99.90;;;;;;4991267;28;20487;-63
2023/10/04 06:53:13;;;;;;;6.13;2.50;;;13.20;99.90;;;;;;4988439;28;20529;-63
2023/10/04 06:55:42;;;;;;;4.50;2.60;;;13.30;99.90;;;;;;4991810;28;20541;-63
2023/10/04 06:58:11;;;;;;;6.03;2.50;;;13.30;99.90;;;;;;4994917;28;20468;-63
2023/10/04 07:00:40;;;;;;;4.30;2.20;;;13.30;99.90;;;;;;4986524;28;20469;-63
2023/10/04 07:03:10;;;;;;;7.50;2.53;;;13.30;99.90;;;;;;4990056;28;20582;-63
2023/10/04 07:05:42;;;;;;;6.30;2.60;;;13.40;99.90;;;;;;4991466;28;20492;-63
2023/10/04 07:08:12;;;;;;;6.97;2.57;;;13.30;99.90;;;;;;4991289;28;20479;-63
2023/10/04 07:10:42;;;;;;;5.03;2.23;;;13.30;99.90;;;;;;4986693;28;20507;-63
2023/10/04 07:13:10;;;;;;;6.43;2.10;;;13.30;99.90;;;;;;4991394;28;20487;-63
2023/10/04 07:15:41;;;;;;;6.50;2.97;;;13.40;99.90;;;;;;4990745;28;20501;-64
2023/10/04 07:18:11;;;;;;;7.37;2.70;;;13.40;99.90;;;;;;4986234;28;20494;-64
2023/10/04 07:20:41;;;;;;;7.07;2.30;;;13.40;99.90;;;;;;4991557;28;20548;-64
2023/10/04 07:23:10;;;;;;;10.80;3.13;;;13.40;99.90;;;;;;4992374;28;20531;-64
2023/10/04 07:25:43;;;;;;;5.93;2.40;;;13.50;99.90;;;;;;4993059;28;20492;-64
2023/10/04 07:28:11;;;;;;;7.03;2.57;;;13.50;99.90;;;;;;4998562;28;20706;-64
2023/10/04 07:30:40;;;;;;;6.10;2.80;;;13.60;99.90;;;;;;4994138;28;21365;-64
2023/10/04 07:33:09;;;;;;;8.20;2.10;;;13.60;99.90;;;;;;4994170;28;20516;-64
2023/10/04 07:35:38;;;;;;;5.50;2.47;;;13.70;99.90;;;;;;4992550;28;20547;-64
2023/10/04 07:38:08;;;;;;;4.77;2.30;;;13.70;99.90;;;;;;4991449;28;20510;-64
2023/10/04 07:40:39;;;;;;;5.77;2.70;;;13.70;99.90;;;;;;4993498;28;20557;-64
2023/10/04 07:43:07;;;;;;;6.40;2.43;;;13.70;99.90;;;;;;4993063;28;20497;-64
2023/10/04 07:45:36;;;;;;;6.53;2.60;;;13.70;99.90;;;;;;4993515;28;20499;-64
2023/10/04 07:48:06;;;;;;;9.37;2.50;;;13.80;99.90;;;;;;4990077;28;20493;-64
2023/10/04 07:50:35;;;;;;;4.43;1.93;;;13.80;99.90;;;;;;4997052;28;20477;-63
2023/10/04 07:53:04;;;;;;;6.33;2.30;;;13.80;99.90;;;;;;4995155;28;20591;-64
2023/10/04 07:55:36;;;;;;;7.93;2.20;;;13.90;99.90;;;;;;4995992;28;20990;-64
2023/10/04 07:58:05;;;;;;;9.07;2.93;;;14.00;99.90;;;;;;4993537;28;21039;-64
2023/10/04 08:00:36;;;;;;;8.27;3.40;;;14.10;99.90;;;;;;4992417;28;20482;-64
2023/10/04 08:03:06;;;;;;;9.60;2.70;;;14.10;99.90;;;;;;4987308;28;20496;-65
2023/10/04 08:05:36;;;;;;;3.97;2.07;;;14.10;99.90;;;;;;4992489;28;21255;-64
2023/10/04 08:08:05;;;;;;;7.00;2.73;;;14.20;99.90;;;;;;4993156;28;20481;-64
2023/10/04 08:10:37;;;;;;;3.73;2.07;;;14.20;99.90;;;;;;4995876;28;20844;-64
2023/10/04 08:13:05;;;;;;;6.93;2.20;;;14.20;99.90;;;;;;4993485;28;20488;-64
2023/10/04 08:15:36;;;;;;;5.60;2.73;;;14.30;99.90;;;;;;4996616;28;20576;-64
2023/10/04 08:18:05;;;;;;;8.63;2.67;;;14.30;99.90;;;;;;4993435;28;20571;-63
2023/10/04 08:20:33;;;;;;;4.47;2.00;;;14.40;99.90;;;;;;4992580;28;20472;-64
2023/10/04 08:23:03;;;;;;;6.30;2.70;;;14.50;99.90;;;;;;4994043;28;20496;-64
2023/10/04 08:25:34;;;;;;;5.30;2.50;;;14.50;99.90;;;;;;4992859;28;20927;-64
2023/10/04 08:28:06;;;;;;;8.13;2.47;;;14.60;99.90;;;;;;4996189;28;20468;-64
2023/10/04 08:30:38;;;;;;;5.13;2.60;;;14.60;99.90;;;;;;4993862;28;20476;-64
2023/10/04 08:33:07;;;;;;;3.67;2.47;;;14.70;99.90;;;;;;4994524;28;20538;-64
2023/10/04 08:35:36;;;;;;;3.93;2.00;;;14.70;99.90;;;;;;4994672;28;20489;-64
2023/10/04 08:38:05;;;;;;;8.83;2.43;;;14.80;99.90;;;;;;4990284;28;20510;-64
2023/10/04 08:40:36;;;;;;;7.67;2.93;;;14.90;99.90;;;;;;4994717;28;20480;-64
2023/10/04 08:43:07;;;;;;;7.10;2.03;;;14.90;99.90;;;;;;4990668;28;20611;-64
2023/10/04 08:45:36;;;;;;;9.10;2.90;;;14.90;99.90;;;;;;4994412;28;20575;-64
2023/10/04 08:48:06;;;;;;;7.10;2.57;;;15.00;99.90;;;;;;4995165;28;20469;-64
2023/10/04 08:50:44;;;;;;;7.40;2.57;;;15.00;99.90;;;;;;4992104;28;20572;-64
2023/10/04 08:53:33;;;;;;;6.30;2.47;;;15.00;99.90;;;;;;4993365;28;20503;-64
2023/10/04 08:56:06;;;;;;;5.50;2.57;;;15.10;99.90;;;;;;4991563;28;21118;-64
2023/10/04 08:58:37;;;;;;;5.60;2.17;;;15.10;99.90;;;;;;4989539;28;20535;-64
2023/10/04 09:01:07;;;;;;;5.80;2.83;;;15.10;99.90;;;;;;4991089;28;20514;-64
2023/10/04 09:03:36;;;;;;;9.63;2.57;;;15.10;99.90;;;;;;4992868;28;20517;-64
2023/10/04 09:06:05;;;;;;;5.43;2.20;;;15.20;99.90;;;;;;4989944;28;20570;-64
2023/10/04 09:08:34;;;;;;;5.90;2.80;;;15.20;99.90;;;;;;4994374;28;20559;-64
2023/10/04 09:11:08;;;;;;;7.33;2.30;;;15.30;99.90;;;;;;4990030;28;20480;-64
2023/10/04 09:13:42;;;;;;;8.00;2.40;;;15.30;99.90;;;;;;4991718;28;20493;-64
2023/10/04 09:16:22;;;;;;;6.10;2.50;;;15.40;99.90;;;;;;4993917;28;20489;-64
2023/10/04 09:19:06;;;;;;;6.47;2.60;;;15.40;99.90;;;;;;4992569;28;20500;-64
2023/10/04 09:21:36;;;;;;;4.17;2.03;;;15.40;99.90;;;;;;4995016;28;20575;-64
2023/10/04 09:24:09;;;;;;;6.43;1.93;;;15.50;99.90;;;;;;4987900;28;20597;-64
2023/10/04 09:26:38;;;;;;;4.40;2.47;;;15.60;99.90;;;;;;4989578;28;20475;-64
2023/10/04 09:29:10;;;;;;;6.47;2.77;;;15.60;99.90;;;;;;4989372;28;20560;-64
2023/10/04 09:31:50;;;;;;;6.83;2.33;;;15.60;99.90;;;;;;4990954;28;20477;-64
2023/10/04 09:34:19;;;;;;;4.00;2.27;;;15.70;99.90;;;;;;4994174;28;20495;-64
2023/10/04 09:36:47;;;;;;;5.33;2.83;;;15.70;99.90;;;;;;4992140;28;21071;-63
2023/10/04 09:39:22;;;;;;;6.50;2.70;;;15.80;99.90;;;;;;4989951;28;20496;-64
2023/10/04 09:41:54;;;;;;;6.43;2.33;;;15.90;99.90;;;;;;4992139;28;20471;-64
2023/10/04 09:44:25;;;;;;;3.37;2.17;;;15.90;99.90;;;;;;4990509;28;20623;-63
2023/10/04 09:46:59;;;;;;;7.43;2.70;;;15.90;99.90;;;;;;4991879;28;20574;-64
2023/10/04 09:49:31;;;;;;;9.50;2.50;;;16.00;99.90;;;;;;4994037;28;20463;-64
2023/10/04 09:52:01;;;;;;;5.00;2.23;;;16.00;99.90;;;;;;4993055;28;21064;-64
2023/10/04 09:54:30;;;;;;;5.10;2.20;;;16.10;99.90;;;;;;4995034;28;20573;-64
2023/10/04 09:56:59;;;;;;;5.87;2.10;;;16.20;99.90;;;;;;4992005;28;20500;-64
2023/10/04 09:59:30;;;;;;;5.43;2.47;;;16.20;99.90;;;;;;4992213;28;20492;-64
2023/10/04 10:01:59;;;;;;;6.57;2.63;;;16.30;99.90;;;;;;4991469;28;20476;-64
2023/10/04 10:04:29;;;;;;;4.20;2.00;;;16.40;99.90;;;;;;4990204;28;20928;-64
2023/10/04 10:07:09;;;;;;;7.53;2.43;;;16.50;99.90;;;;;;4992503;28;20574;-64
2023/10/04 10:09:51;;;;;;;6.50;2.27;;;16.50;99.90;;;;;;4991764;28;20476;-64
2023/10/04 10:12:29;;;;;;;4.40;2.60;;;16.60;99.90;;;;;;4989323;28;20497;-64
2023/10/04 10:15:01;;;;;;;7.77;2.80;;;16.70;99.90;;;;;;4991214;28;20602;-64
2023/10/04 10:17:30;;;;;;;7.73;2.90;;;16.70;99.90;;;;;;4981816;28;20665;-64
2023/10/04 10:19:59;;;;;;;6.10;2.50;;;16.80;99.90;;;;;;4993109;28;20480;-64
2023/10/04 10:22:28;;;;;;;4.90;2.73;;;16.90;99.90;;;;;;4990727;28;20489;-64
2023/10/04 10:25:14;;;;;;;6.00;2.30;;;17.00;99.90;;;;;;4990740;28;20568;-64
2023/10/04 10:27:43;;;;;;;6.33;2.53;;;17.10;99.90;;;;;;4989368;28;20511;-64
2023/10/04 10:30:16;;;;;;;8.67;2.53;;;17.10;99.90;;;;;;4987452;28;20476;-64
2023/10/04 10:32:53;;;;;;;9.53;3.33;;;17.10;99.90;;;;;;4995080;28;21461;-64
2023/10/04 10:35:52;;;;;;;5.70;2.43;;;17.10;99.90;;;;;;4988143;28;20519;-63
2023/10/04 10:38:47;;;;;;;7.17;2.90;;;17.10;99.90;;;;;;4991129;28;20963;-64
2023/10/04 10:41:55;;;;;;;3.23;1.97;;;17.10;99.90;;;;;;4988810;28;20478;-64
2023/10/04 10:44:24;;;;;;;5.50;2.40;;;17.10;99.90;;;;;;4986238;28;20824;-64
2023/10/04 10:46:58;;;;;;;8.43;2.60;;;17.00;99.90;;;;;;4989614;28;20467;-63
2023/10/04 10:49:40;;;;;;;7.20;2.70;;;17.00;99.90;;;;;;4989599;28;20472;-63
2023/10/04 10:52:10;;;;;;;5.33;2.17;;;16.90;99.90;;;;;;4990858;28;20559;-64
2023/10/04 10:54:38;;;;;;;5.33;2.63;;;16.90;99.90;;;;;;4989774;28;20595;-63
2023/10/04 10:57:06;;;;;;;5.83;2.53;;;16.80;99.90;;;;;;4988540;28;20469;-63
2023/10/04 10:59:34;;;;;;;10.23;3.00;;;16.80;99.90;;;;;;4993462;28;20595;-66
2023/10/04 11:02:05;;;;;;;4.27;2.37;;;16.80;99.90;;;;;;4996258;28;20465;-64
2023/10/04 11:04:34;;;;;;;5.27;2.80;;;16.90;99.90;;;;;;4994956;28;20524;-64
2023/10/04 11:07:02;;;;;;;6.13;2.67;;;17.00;99.90;;;;;;4993671;28;20484;-64
2023/10/04 11:09:37;;;;;;;6.37;2.90;;;17.00;99.90;;;;;;4991305;28;22257;-67
2023/10/04 11:12:13;;;;;;;7.67;3.10;;;17.10;99.90;;;;;;4995400;28;20706;-67
2023/10/04 11:14:42;;;;;;;6.80;2.80;;;17.30;99.90;;;;;;4995458;28;20878;-67
2023/10/04 11:17:13;;;;;;;7.27;3.80;;;17.50;99.90;;;;;;4995669;28;20559;-67
2023/10/04 11:19:41;;;;;;;7.70;2.80;;;17.70;99.90;;;;;;4994680;28;20498;-64
2023/10/04 11:22:11;;;;;;;4.57;2.57;;;17.70;99.90;;;;;;4992991;28;20982;-64
2023/10/04 11:24:40;;;;;;;6.43;4.00;;;17.60;99.90;;;;;;4984019;28;20593;-63
2023/10/04 11:27:10;;;;;;;7.43;2.90;;;17.40;99.90;;;;;;4991730;28;20491;-63
2023/10/04 11:29:40;;;;;;;7.60;2.97;;;17.40;99.90;;;;;;4993036;28;20472;-64
2023/10/04 11:32:09;;;;;;;5.67;2.90;;;17.50;99.90;;;;;;4994457;28;20552;-63
2023/10/04 11:34:43;;;;;;;4.70;2.37;;;17.70;99.90;;;;;;4991750;28;20503;-63
2023/10/04 11:37:13;;;;;;;11.27;3.43;;;17.90;99.90;;;;;;4991261;28;20473;-63
2023/10/04 11:39:42;;;;;;;8.00;3.03;;;17.90;99.90;;;;;;4986425;28;20495;-63
2023/10/04 11:42:17;;;;;;;6.83;3.00;;;17.80;99.90;;;;;;4995079;28;21256;-63
2023/10/04 11:44:45;;;;;;;6.43;3.27;;;17.80;99.90;;;;;;4991950;28;20488;-63
2023/10/04 11:47:15;;;;;;;5.13;3.10;;;17.80;99.90;;;;;;4996559;28;20563;-63
2023/10/04 11:49:58;;;;;;;5.90;3.13;;;17.80;99.90;;;;;;4995320;28;20464;-63
2023/10/04 11:52:31;;;;;;;7.43;3.40;;;18.00;99.90;;;;;;4997686;28;20546;-63
2023/10/04 11:55:01;;;;;;;8.10;3.30;;;18.10;99.90;;;;;;4993090;28;20495;-63
2023/10/04 11:57:36;;;;;;;8.33;3.17;;;18.30;99.90;;;;;;4996182;28;20482;-63
2023/10/04 12:00:17;;;;;;;6.90;3.23;;;18.50;99.90;;;;;;4994389;28;21975;-63
2023/10/04 12:02:45;;;;;;;7.60;3.57;;;18.60;99.90;;;;;;4991661;28;20497;-63
2023/10/04 12:05:15;;;;;;;6.67;3.53;;;18.70;99.90;;;;;;4996397;28;20490;-63
2023/10/04 12:07:43;;;;;;;8.03;3.47;;;18.70;99.90;;;;;;4995593;28;21027;-63
2023/10/04 12:10:13;;;;;;;6.70;3.30;;;18.80;99.90;;;;;;4993843;28;20461;-63
2023/10/04 12:12:42;;;;;;;8.33;3.40;;;18.70;99.90;;;;;;4996082;28;20492;-63
2023/10/04 12:15:11;;;;;;;6.80;4.00;;;18.60;99.90;;;;;;4993921;28;20496;-63
2023/10/04 12:17:41;;;;;;;5.53;3.90;;;18.40;99.90;;;;;;4994170;28;20495;-63
2023/10/04 12:20:11;;;;;;;4.17;3.03;;;18.30;99.90;;;;;;4989088;28;20492;-63
2023/10/04 12:22:42;;;;;;;5.33;3.53;;;18.90;99.90;;;;;;4990327;28;20488;-63
2023/10/04 12:25:10;;;;;;;6.90;3.20;;;18.80;99.90;;;;;;4989093;28;20998;-65
2023/10/04 12:27:38;;;;;;;9.90;3.97;;;19.50;99.90;;;;;;4991378;28;20572;-64
2023/10/04 12:30:08;;;;;;;4.63;3.57;;;20.20;99.90;;;;;;4990818;28;20477;-64
2023/10/04 12:32:36;;;;;;;6.30;3.70;;;20.80;99.90;;;;;;4993671;28;21056;-63
2023/10/04 12:35:06;;;;;;;6.93;3.70;;;21.20;99.90;;;;;;4992222;28;20488;-64
2023/10/04 12:37:34;;;;;;;5.83;3.90;;;20.80;99.90;;;;;;4991162;28;20469;-61
2023/10/04 12:40:11;;;;;;;7.00;3.30;;;21.00;99.90;;;;;;4993609;28;20518;-64
2023/10/04 12:42:39;;;;;;;6.30;3.77;;;22.30;99.90;;;;;;4994692;28;20686;-64
2023/10/04 12:45:10;;;;;;;8.47;4.20;;;22.60;99.90;;;;;;4994063;28;20789;-62
2023/10/04 12:47:41;;;;;;;6.23;3.67;;;23.80;99.90;;;;;;4991938;28;20465;-62
2023/10/04 12:50:13;;;;;;;9.57;4.10;;;24.60;99.90;;;;;;4992123;28;20480;-61
2023/10/04 12:52:42;;;;;;;6.00;4.10;;;24.90;94.60;;;;;;4994228;28;20492;-61
2023/10/04 12:55:12;;;;;;;6.77;3.70;;;24.30;95.20;;;;;;4992209;28;20496;-61
2023/10/04 12:57:43;;;;;;;5.30;3.70;;;23.30;98.10;;;;;;4993083;28;21113;-62
2023/10/04 13:00:15;;;;;;;7.50;4.33;;;22.30;99.90;;;;;;4995159;28;20535;-61
2023/10/04 13:02:44;;;;;;;5.60;3.40;;;21.50;99.90;;;;;;4991738;28;20578;-63